createdAt,value
2019-05-29T00:01:00.577Z,94.56
2019-05-29T00:03:33.235Z,94.07
2019-05-29T00:06:06.224Z,93.12
2019-05-29T00:08:39.128Z,93.15
2019-05-29T00:11:12.235Z,92.48
2019-05-29T00:13:45.085Z,92.73
2019-05-29T00:16:18.992Z,93.34
2019-05-29T00:18:51.205Z,94.76
2019-05-29T00:21:23.833Z,95.54
2019-05-29T00:23:56.718Z,95.15
2019-05-29T00:26:29.420Z,94.14
2019-05-29T00:29:03.509Z,93.09
2019-05-29T00:31:36.188Z,91.68
2019-05-29T00:34:08.980Z,90.46
2019-05-29T00:36:41.752Z,89.84
2019-05-29T00:39:14.846Z,89.78
2019-05-29T00:41:47.724Z,89.45
2019-05-29T00:44:33.563Z,89.62
2019-05-29T00:46:54.517Z,88.91
2019-05-29T00:49:27.091Z,88.49
2019-05-29T00:51:59.778Z,88.95
2019-05-29T00:54:32.348Z,89.42
2019-05-29T00:57:05.079Z,89.37
2019-05-29T00:59:37.809Z,88.98
2019-05-29T01:02:11.781Z,89.30
2019-05-29T01:04:44.508Z,89.79
2019-05-29T01:07:16.759Z,89.48
2019-05-29T01:09:49.344Z,89.91
2019-05-29T01:12:22.026Z,89.76
2019-05-29T01:14:54.439Z,89.89
2019-05-29T01:17:28.019Z,89.91
2019-05-29T01:20:01.396Z,89.96
2019-05-29T01:22:33.958Z,90.00
2019-05-29T01:25:07.675Z,89.87
2019-05-29T01:27:40.350Z,90.24
2019-05-29T01:30:15.053Z,90.36
2019-05-29T01:32:48.945Z,90.15
2019-05-29T01:35:22.019Z,90.04
2019-05-29T01:37:54.958Z,90.27
2019-05-29T01:40:29.453Z,90.39
2019-05-29T01:43:03.191Z,90.52
2019-05-29T01:45:35.754Z,91.06
2019-05-29T01:48:08.542Z,90.79
2019-05-29T01:50:41.114Z,90.61
2019-05-29T01:53:13.817Z,91.21
2019-05-29T01:55:46.372Z,91.25
2019-05-29T01:58:20.451Z,90.90
2019-05-29T02:00:53.341Z,91.12
2019-05-29T02:03:25.948Z,91.09
2019-05-29T02:05:58.523Z,90.23
2019-05-29T02:08:31.199Z,90.36
2019-05-29T02:11:03.780Z,90.54
2019-05-29T02:13:36.245Z,90.24
2019-05-29T02:16:08.828Z,90.50
2019-05-29T02:18:41.507Z,90.42
2019-05-29T02:21:14.083Z,90.36
2019-05-29T02:23:46.767Z,90.43
2019-05-29T02:26:20.397Z,90.59
2019-05-29T02:28:53.146Z,90.93
2019-05-29T02:31:28.219Z,91.25
2019-05-29T02:34:00.042Z,91.41
2019-05-29T02:36:33.137Z,91.45
2019-05-29T02:39:08.683Z,91.65
2019-05-29T02:41:41.564Z,92.02
2019-05-29T02:44:14.292Z,92.27
2019-05-29T02:46:46.921Z,92.43
2019-05-29T02:49:20.064Z,92.32
2019-05-29T02:51:53.715Z,92.61
2019-05-29T02:54:27.196Z,92.32
2019-05-29T02:57:00.603Z,92.61
2019-05-29T02:59:33.284Z,92.62
2019-05-29T03:02:05.868Z,93.05
2019-05-29T03:04:38.542Z,93.03
2019-05-29T03:07:11.117Z,92.96
2019-05-29T03:09:44.329Z,92.91
2019-05-29T03:12:16.884Z,93.08
2019-05-29T03:14:49.589Z,92.99
2019-05-29T03:17:23.491Z,92.80
2019-05-29T03:19:55.972Z,92.78
2019-05-29T03:22:29.252Z,92.57
2019-05-29T03:25:02.601Z,92.60
2019-05-29T03:27:38.032Z,92.33
2019-05-29T03:30:10.533Z,91.97
2019-05-29T03:32:47.865Z,91.87
2019-05-29T03:35:17.652Z,91.14
2019-05-29T03:37:50.739Z,91.27
2019-05-29T03:40:23.421Z,90.90
2019-05-29T03:42:57.233Z,90.65
2019-05-29T03:45:31.317Z,89.93
2019-05-29T03:48:03.950Z,89.27
2019-05-29T03:50:36.406Z,88.42
2019-05-29T03:53:09.067Z,87.44
2019-05-29T03:55:41.748Z,86.57
2019-05-29T03:58:14.325Z,86.42
2019-05-29T04:00:48.793Z,85.46
2019-05-29T04:03:21.222Z,86.40
2019-05-29T04:05:53.896Z,86.02
2019-05-29T04:08:27.449Z,85.76
2019-05-29T04:11:02.022Z,85.05
2019-05-29T04:13:36.108Z,85.11
2019-05-29T04:16:11.242Z,85.11
2019-05-29T04:18:44.259Z,85.20
2019-05-29T04:21:18.572Z,85.64
2019-05-29T04:23:53.315Z,84.63
2019-05-29T04:26:28.062Z,84.13
2019-05-29T04:29:01.425Z,84.71
2019-05-29T04:31:34.455Z,84.32
2019-05-29T04:34:07.497Z,84.11
2019-05-29T04:36:40.080Z,83.90
2019-05-29T04:39:12.334Z,84.29
2019-05-29T04:41:44.871Z,83.59
2019-05-29T04:44:18.526Z,83.49
2019-05-29T04:47:08.960Z,83.63
2019-05-29T04:49:25.423Z,83.51
2019-05-29T04:51:58.096Z,83.98
2019-05-29T04:54:31.100Z,84.33
2019-05-29T04:57:03.764Z,83.18
2019-05-29T04:59:37.123Z,83.06
2019-05-29T05:02:09.738Z,83.59
2019-05-29T05:04:42.417Z,82.62
2019-05-29T05:07:15.092Z,83.04
2019-05-29T05:09:47.772Z,82.60
2019-05-29T05:12:20.771Z,82.63
2019-05-29T05:14:53.646Z,81.77
2019-05-29T05:17:26.821Z,81.83
2019-05-29T05:20:00.942Z,81.22
2019-05-29T05:22:34.286Z,80.38
2019-05-29T05:25:10.091Z,80.57
2019-05-29T05:27:42.668Z,80.43
2019-05-29T05:30:16.991Z,79.72
2019-05-29T05:32:49.565Z,79.43
2019-05-29T05:35:22.863Z,79.42
2019-05-29T05:37:55.105Z,78.56
2019-05-29T05:40:27.713Z,78.83
2019-05-29T05:42:59.953Z,78.41
2019-05-29T05:45:35.022Z,77.44
2019-05-29T05:48:07.695Z,78.04
2019-05-29T05:50:41.574Z,76.71
2019-05-29T05:53:14.412Z,77.03
2019-05-29T05:55:47.652Z,75.59
2019-05-29T05:58:20.249Z,75.42
2019-05-29T06:00:53.041Z,75.13
2019-05-29T06:03:25.714Z,73.15
2019-05-29T06:05:58.389Z,72.45
2019-05-29T06:08:31.917Z,73.45
2019-05-29T06:11:04.767Z,72.18
2019-05-29T06:13:36.987Z,73.08
2019-05-29T06:16:09.616Z,71.32
2019-05-29T06:18:43.034Z,70.49
2019-05-29T06:21:16.611Z,70.19
2019-05-29T06:23:49.190Z,70.04
2019-05-29T06:26:21.872Z,69.34
2019-05-29T06:28:54.445Z,67.79
2019-05-29T06:31:27.496Z,69.70
2019-05-29T06:34:00.424Z,66.83
2019-05-29T06:36:35.223Z,67.30
2019-05-29T06:39:09.363Z,65.94
2019-05-29T06:41:42.112Z,65.17
2019-05-29T06:44:15.027Z,64.08
2019-05-29T06:46:47.707Z,64.42
2019-05-29T06:49:20.279Z,63.47
2019-05-29T06:51:52.961Z,63.67
2019-05-29T06:54:25.537Z,62.38
2019-05-29T06:56:58.425Z,62.01
2019-05-29T06:59:31.000Z,58.56
2019-05-29T07:02:04.087Z,57.70
2019-05-29T07:04:36.969Z,58.34
2019-05-29T07:07:09.618Z,57.65
2019-05-29T07:09:43.047Z,60.34
2019-05-29T07:12:15.397Z,60.10
2019-05-29T07:14:48.097Z,58.56
2019-05-29T07:17:20.778Z,58.35
2019-05-29T07:20:02.878Z,57.40
2019-05-29T07:22:27.603Z,55.19
2019-05-29T07:25:00.338Z,56.31
2019-05-29T07:27:33.170Z,55.65
2019-05-29T07:30:08.358Z,54.11
2019-05-29T07:32:42.503Z,54.06
2019-05-29T07:35:15.405Z,54.67
2019-05-29T07:37:48.061Z,53.96
2019-05-29T07:40:21.172Z,51.87
2019-05-29T07:42:56.772Z,54.11
2019-05-29T07:45:28.372Z,54.22
2019-05-29T07:48:00.598Z,51.82
2019-05-29T07:50:33.226Z,54.08
2019-05-29T07:53:05.451Z,52.34
2019-05-29T07:55:38.508Z,53.18
2019-05-29T07:58:11.269Z,54.08
2019-05-29T08:01:06.771Z,52.80
2019-05-29T08:03:19.511Z,52.75
2019-05-29T08:05:53.350Z,51.18
2019-05-29T08:08:26.275Z,51.87
2019-05-29T08:10:58.970Z,54.33
2019-05-29T08:13:31.651Z,53.66
2019-05-29T08:16:04.678Z,52.17
2019-05-29T08:18:41.094Z,52.13
2019-05-29T08:21:12.781Z,52.67
2019-05-29T08:23:46.407Z,52.49
2019-05-29T08:26:19.336Z,53.86
2019-05-29T08:28:51.918Z,52.78
2019-05-29T08:31:24.904Z,51.12
2019-05-29T08:33:57.484Z,50.19
2019-05-29T08:36:30.640Z,50.93
2019-05-29T08:39:03.242Z,48.85
2019-05-29T08:41:35.923Z,48.70
2019-05-29T08:44:08.693Z,50.36
2019-05-29T08:46:58.205Z,48.35
2019-05-29T08:49:16.205Z,48.83
2019-05-29T08:51:49.998Z,50.10
2019-05-29T08:54:24.472Z,50.23
2019-05-29T08:56:57.311Z,49.92
2019-05-29T08:59:29.867Z,47.26
2019-05-29T09:02:02.593Z,48.12
2019-05-29T09:04:35.254Z,42.97
2019-05-29T09:07:07.943Z,44.14
2019-05-29T09:09:40.626Z,43.72
2019-05-29T09:12:13.441Z,43.86
2019-05-29T09:14:46.072Z,46.36
2019-05-29T09:17:20.057Z,47.04
2019-05-29T09:19:52.664Z,43.85
2019-05-29T09:22:25.334Z,45.55
2019-05-29T09:24:57.900Z,43.56
2019-05-29T09:27:30.709Z,40.97
2019-05-29T09:30:03.142Z,44.25
2019-05-29T09:32:49.331Z,46.35
2019-05-29T09:35:11.311Z,47.73
2019-05-29T09:37:43.973Z,49.02
2019-05-29T09:40:21.087Z,49.28
2019-05-29T09:42:54.150Z,48.93
2019-05-29T09:45:26.823Z,49.80
2019-05-29T09:47:59.377Z,47.14
2019-05-29T09:50:48.948Z,43.86
2019-05-29T09:53:06.289Z,44.35
2019-05-29T09:55:38.980Z,44.15
2019-05-29T09:58:11.649Z,44.20
2019-05-29T10:00:44.230Z,43.40
2019-05-29T10:03:16.910Z,43.38
2019-05-29T10:05:49.593Z,44.01
2019-05-29T10:08:22.267Z,42.00
2019-05-29T10:11:03.849Z,44.25
2019-05-29T10:13:29.200Z,42.89
2019-05-29T10:16:02.881Z,43.38
2019-05-29T10:18:35.752Z,44.65
2019-05-29T10:21:08.683Z,45.33
2019-05-29T10:23:41.329Z,45.90
2019-05-29T10:26:13.987Z,46.45
2019-05-29T10:29:02.138Z,45.98
2019-05-29T10:31:20.778Z,46.39
2019-05-29T10:33:53.577Z,45.94
2019-05-29T10:36:26.267Z,50.24
2019-05-29T10:38:58.861Z,51.17
2019-05-29T10:41:31.089Z,50.62
2019-05-29T10:44:03.874Z,48.23
2019-05-29T10:46:36.870Z,48.31
2019-05-29T10:49:10.674Z,48.00
2019-05-29T10:52:00.250Z,48.40
2019-05-29T10:54:17.219Z,46.27
2019-05-29T10:56:50.833Z,47.18
2019-05-29T10:59:23.842Z,48.81
2019-05-29T11:01:56.424Z,50.19
2019-05-29T11:04:29.420Z,50.57
2019-05-29T11:07:01.646Z,51.21
2019-05-29T11:09:43.822Z,49.11
2019-05-29T11:12:08.569Z,48.58
2019-05-29T11:14:41.310Z,51.52
2019-05-29T11:17:14.639Z,49.46
2019-05-29T11:19:47.317Z,50.17
2019-05-29T11:22:26.395Z,50.58
2019-05-29T11:24:54.166Z,50.21
2019-05-29T11:27:27.006Z,49.08
2019-05-29T11:29:59.771Z,47.10
2019-05-29T11:32:34.088Z,48.06
2019-05-29T11:35:08.232Z,46.48
2019-05-29T11:37:40.988Z,43.84
2019-05-29T11:40:15.648Z,45.93
2019-05-29T11:42:50.806Z,47.91
2019-05-29T11:45:24.037Z,48.40
2019-05-29T11:47:58.945Z,45.26
2019-05-29T11:50:30.804Z,46.43
2019-05-29T11:53:03.716Z,45.57
2019-05-29T11:55:36.403Z,44.80
2019-05-29T11:58:09.664Z,45.33
2019-05-29T12:00:43.503Z,43.29
2019-05-29T12:03:16.185Z,41.69
2019-05-29T12:05:48.853Z,41.71
2019-05-29T12:08:21.738Z,43.05
2019-05-29T12:10:55.347Z,42.30
2019-05-29T12:13:28.270Z,42.35
2019-05-29T12:16:01.926Z,43.02
2019-05-29T12:18:34.837Z,41.13
2019-05-29T12:21:09.140Z,43.47
2019-05-29T12:23:41.800Z,44.38
2019-05-29T12:26:22.405Z,45.05
2019-05-29T12:28:48.917Z,43.65
2019-05-29T12:31:21.583Z,42.20
2019-05-29T12:33:54.975Z,39.92
2019-05-29T12:36:27.761Z,41.48
2019-05-29T12:39:02.232Z,36.08
2019-05-29T12:41:35.573Z,36.87
2019-05-29T12:44:08.569Z,35.86
2019-05-29T12:46:41.255Z,36.68
2019-05-29T12:49:13.928Z,38.34
2019-05-29T12:51:46.612Z,38.44
2019-05-29T12:54:19.195Z,38.88
2019-05-29T12:56:51.990Z,40.91
2019-05-29T12:59:24.642Z,38.63
2019-05-29T13:01:58.441Z,36.74
2019-05-29T13:04:31.125Z,37.88
2019-05-29T13:07:04.687Z,40.11
2019-05-29T13:09:37.427Z,38.43
2019-05-29T13:12:10.514Z,39.01
2019-05-29T13:14:43.223Z,37.26
2019-05-29T13:17:16.057Z,36.01
2019-05-29T13:19:48.645Z,34.21
2019-05-29T13:22:21.315Z,35.27
2019-05-29T13:24:55.110Z,35.01
2019-05-29T13:27:28.320Z,35.94
2019-05-29T13:30:03.560Z,35.71
2019-05-29T13:32:35.197Z,34.43
2019-05-29T13:35:10.346Z,36.16
2019-05-29T13:37:42.630Z,35.50
2019-05-29T13:40:16.427Z,35.86
2019-05-29T13:42:49.106Z,34.21
2019-05-29T13:45:22.088Z,31.76
2019-05-29T13:47:54.967Z,31.70
2019-05-29T13:50:27.696Z,32.17
2019-05-29T13:53:01.309Z,31.73
2019-05-29T13:55:33.932Z,31.63
2019-05-29T13:58:06.313Z,31.70
2019-05-29T14:00:38.994Z,30.44
2019-05-29T14:03:11.963Z,30.18
2019-05-29T14:05:44.211Z,28.86
2019-05-29T14:08:16.905Z,29.73
2019-05-29T14:10:49.902Z,29.89
2019-05-29T14:13:22.571Z,29.20
2019-05-29T14:15:55.158Z,30.91
2019-05-29T14:18:28.549Z,31.01
2019-05-29T14:21:01.130Z,29.77
2019-05-29T14:23:33.819Z,31.34
2019-05-29T14:26:08.488Z,32.40
2019-05-29T14:28:41.319Z,31.75
2019-05-29T14:31:14.094Z,30.04
2019-05-29T14:33:46.782Z,28.95
2019-05-29T14:36:19.761Z,27.50
2019-05-29T14:38:52.454Z,27.90
2019-05-29T14:41:25.135Z,28.13
2019-05-29T14:43:58.219Z,28.97
2019-05-29T14:46:30.925Z,29.64
2019-05-29T14:49:04.317Z,28.61
2019-05-29T14:51:37.267Z,28.62
2019-05-29T14:54:11.023Z,27.37
2019-05-29T14:56:43.524Z,27.79
2019-05-29T14:59:16.641Z,27.61
2019-05-29T15:01:51.298Z,28.72
2019-05-29T15:04:23.238Z,28.49
2019-05-29T15:06:55.805Z,27.15
2019-05-29T15:09:28.486Z,25.45
2019-05-29T15:12:01.063Z,28.60
2019-05-29T15:14:33.763Z,29.87
2019-05-29T15:17:07.069Z,28.58
2019-05-29T15:19:40.125Z,28.23
2019-05-29T15:22:14.230Z,30.69
2019-05-29T15:25:01.270Z,29.69
2019-05-29T15:27:20.946Z,29.34
2019-05-29T15:29:53.208Z,27.28
2019-05-29T15:32:26.075Z,25.43
2019-05-29T15:34:58.757Z,23.57
2019-05-29T15:37:31.631Z,24.82
2019-05-29T15:40:06.600Z,25.09
2019-05-29T15:42:40.578Z,27.54
2019-05-29T15:45:15.936Z,26.12
2019-05-29T15:47:48.754Z,25.30
2019-05-29T15:50:21.598Z,25.96
2019-05-29T15:52:55.131Z,24.71
2019-05-29T15:55:33.544Z,24.45
2019-05-29T15:58:02.102Z,26.21
2019-05-29T16:00:35.180Z,26.21
2019-05-29T16:03:09.531Z,29.13
2019-05-29T16:05:42.738Z,29.81
2019-05-29T16:08:16.850Z,26.70
2019-05-29T16:10:49.336Z,23.67
2019-05-29T16:13:21.948Z,26.79
2019-05-29T16:15:54.932Z,25.18
2019-05-29T16:18:29.678Z,24.88
2019-05-29T16:21:02.150Z,24.64
2019-05-29T16:23:36.085Z,25.85
2019-05-29T16:26:11.003Z,25.52
2019-05-29T16:28:43.969Z,26.40
2019-05-29T16:31:16.897Z,25.41
2019-05-29T16:33:49.522Z,26.65
2019-05-29T16:36:22.520Z,27.92
2019-05-29T16:38:55.187Z,30.82
2019-05-29T16:41:27.955Z,32.89
2019-05-29T16:44:00.648Z,34.03
2019-05-29T16:46:33.382Z,34.62
2019-05-29T16:49:06.325Z,34.76
2019-05-29T16:51:41.918Z,36.04
2019-05-29T16:54:13.219Z,36.43
2019-05-29T16:56:47.034Z,36.66
2019-05-29T16:59:19.713Z,37.96
2019-05-29T17:01:52.683Z,37.39
2019-05-29T17:04:25.374Z,37.60
2019-05-29T17:07:00.024Z,36.44
2019-05-29T17:09:32.679Z,35.87
2019-05-29T17:12:05.351Z,34.65
2019-05-29T17:14:37.922Z,34.75
2019-05-29T17:17:10.812Z,35.41
2019-05-29T17:19:43.492Z,37.32
2019-05-29T17:22:16.587Z,37.80
2019-05-29T17:24:48.923Z,38.63
2019-05-29T17:27:22.920Z,39.07
2019-05-29T17:29:56.156Z,38.85
2019-05-29T17:32:29.134Z,36.33
2019-05-29T17:35:03.827Z,37.57
2019-05-29T17:37:36.957Z,39.02
2019-05-29T17:40:10.762Z,39.69
2019-05-29T17:42:43.412Z,39.47
2019-05-29T17:45:20.911Z,40.06
2019-05-29T17:47:50.540Z,41.44
2019-05-29T17:50:26.343Z,42.79
2019-05-29T17:52:57.740Z,42.59
2019-05-29T17:55:30.427Z,43.21
2019-05-29T17:58:03.090Z,44.21
2019-05-29T18:00:36.185Z,43.74
2019-05-29T18:03:08.862Z,44.91
2019-05-29T18:05:43.095Z,44.81
2019-05-29T18:08:16.664Z,45.54
2019-05-29T18:10:49.467Z,45.97
2019-05-29T18:13:23.266Z,46.92
2019-05-29T18:15:56.062Z,47.28
2019-05-29T18:18:29.318Z,48.49
2019-05-29T18:21:01.929Z,48.11
2019-05-29T18:23:34.607Z,48.67
2019-05-29T18:26:07.171Z,49.06
2019-05-29T18:28:39.850Z,49.55
2019-05-29T18:31:13.564Z,49.89
2019-05-29T18:33:46.246Z,49.72
2019-05-29T18:36:20.996Z,50.50
2019-05-29T18:38:55.706Z,49.95
2019-05-29T18:41:28.490Z,50.49
2019-05-29T18:44:01.566Z,51.35
2019-05-29T18:46:37.934Z,51.18
2019-05-29T18:49:08.551Z,52.70
2019-05-29T18:51:41.952Z,51.70
2019-05-29T18:54:14.659Z,52.45
2019-05-29T18:57:13.078Z,52.88
2019-05-29T18:59:21.528Z,53.02
2019-05-29T19:01:54.416Z,53.47
2019-05-29T19:04:29.837Z,54.05
2019-05-29T19:07:02.666Z,53.38
2019-05-29T19:09:34.955Z,54.71
2019-05-29T19:12:07.823Z,53.87
2019-05-29T19:14:43.169Z,55.40
2019-05-29T19:17:15.727Z,55.67
2019-05-29T19:19:48.446Z,55.76
2019-05-29T19:22:22.269Z,55.38
2019-05-29T19:24:55.106Z,56.85
2019-05-29T19:27:34.117Z,56.82
2019-05-29T19:30:02.531Z,56.69
2019-05-29T19:32:35.807Z,56.74
2019-05-29T19:35:10.042Z,57.20
2019-05-29T19:37:42.914Z,57.99
2019-05-29T19:40:15.683Z,58.35
2019-05-29T19:42:49.253Z,59.52
2019-05-29T19:45:24.406Z,58.74
2019-05-29T19:47:57.199Z,58.70
2019-05-29T19:50:30.793Z,58.50
2019-05-29T19:53:03.700Z,59.20
2019-05-29T19:55:38.253Z,58.97
2019-05-29T19:58:10.689Z,59.08
2019-05-29T20:00:44.895Z,58.71
2019-05-29T20:03:20.089Z,59.05
2019-05-29T20:05:52.266Z,59.22
2019-05-29T20:08:24.991Z,59.98
2019-05-29T20:10:57.682Z,59.68
2019-05-29T20:13:31.632Z,60.17
2019-05-29T20:16:04.551Z,59.80
2019-05-29T20:18:38.359Z,60.23
2019-05-29T20:21:15.886Z,59.64
2019-05-29T20:23:53.108Z,59.40
2019-05-29T20:26:29.123Z,58.93
2019-05-29T20:29:01.891Z,58.10
2019-05-29T20:31:35.077Z,58.08
2019-05-29T20:34:07.646Z,57.28
2019-05-29T20:36:40.137Z,57.67
2019-05-29T20:39:15.065Z,57.06
2019-05-29T20:41:47.743Z,56.69
2019-05-29T20:44:20.416Z,56.95
2019-05-29T20:46:53.125Z,56.41
2019-05-29T20:49:25.881Z,55.98
2019-05-29T20:51:58.558Z,56.15
2019-05-29T20:54:31.562Z,56.46
2019-05-29T20:57:13.388Z,56.82
2019-05-29T20:59:45.963Z,56.80
2019-05-29T21:02:18.248Z,55.77
2019-05-29T21:04:50.877Z,56.56
2019-05-29T21:07:23.538Z,56.21
2019-05-29T21:09:55.854Z,55.71
2019-05-29T21:12:28.588Z,55.13
2019-05-29T21:15:01.366Z,54.87
2019-05-29T21:17:34.047Z,55.03
2019-05-29T21:20:08.879Z,55.33
2019-05-29T21:22:42.916Z,55.38
2019-05-29T21:25:19.155Z,54.76
2019-05-29T21:27:50.402Z,55.07
2019-05-29T21:30:26.154Z,55.09
2019-05-29T21:32:58.901Z,54.90
2019-05-29T21:35:31.258Z,56.14
2019-05-29T21:38:04.181Z,55.93
2019-05-29T21:40:38.261Z,55.96
2019-05-29T21:43:11.079Z,56.34
2019-05-29T21:45:43.290Z,56.60
2019-05-29T21:48:15.554Z,56.63
2019-05-29T21:50:48.201Z,57.48
2019-05-29T21:53:20.871Z,57.59
2019-05-29T21:55:53.453Z,58.61
2019-05-29T21:58:26.059Z,57.31
2019-05-29T22:00:58.818Z,57.20
2019-05-29T22:03:32.293Z,58.18
2019-05-29T22:06:04.988Z,57.83
2019-05-29T22:08:38.510Z,57.48
2019-05-29T22:11:11.468Z,57.88
2019-05-29T22:13:44.221Z,57.78
2019-05-29T22:16:16.829Z,57.30
2019-05-29T22:18:50.735Z,57.86
2019-05-29T22:21:23.722Z,58.44
2019-05-29T22:23:57.122Z,58.51
2019-05-29T22:26:30.212Z,58.66
2019-05-29T22:29:17.009Z,58.80
2019-05-29T22:31:36.617Z,59.36
2019-05-29T22:34:09.469Z,58.13
2019-05-29T22:36:41.682Z,58.92
2019-05-29T22:39:14.327Z,59.07
2019-05-29T22:41:46.895Z,58.81
2019-05-29T22:44:19.841Z,59.27
2019-05-29T22:46:53.587Z,60.48
2019-05-29T22:49:26.774Z,59.93
2019-05-29T22:51:59.906Z,59.97
2019-05-29T22:54:33.067Z,61.13
2019-05-29T22:57:06.039Z,61.24
2019-05-29T22:59:38.764Z,61.98
2019-05-29T23:02:11.722Z,61.44
2019-05-29T23:04:45.103Z,61.43
2019-05-29T23:07:17.789Z,62.29
2019-05-29T23:09:50.664Z,62.73
2019-05-29T23:12:23.179Z,61.93
2019-05-29T23:14:56.383Z,63.92
2019-05-29T23:17:28.907Z,65.63
2019-05-29T23:20:04.011Z,65.24
2019-05-29T23:22:36.062Z,65.81
2019-05-29T23:25:09.820Z,66.38
2019-05-29T23:27:42.401Z,65.11
2019-05-29T23:30:15.680Z,63.72
2019-05-29T23:32:48.370Z,62.87
2019-05-29T23:35:21.044Z,63.56
2019-05-29T23:37:54.974Z,62.96
2019-05-29T23:40:27.933Z,63.35
2019-05-29T23:43:01.593Z,63.55
2019-05-29T23:45:34.420Z,63.24
2019-05-29T23:48:07.109Z,66.03
2019-05-29T23:50:39.788Z,68.20
2019-05-29T23:53:12.488Z,68.57
2019-05-29T23:55:45.146Z,69.27
2019-05-29T23:58:17.821Z,70.27
